Time;durP1;ratioP1;P1;durP2;ratioP2;P2;SDS_P1;SDS_P2;PMS_P1;PMS_P2;Temp;Humidity;BMP_temperature;BMP_pressure;BME280_temperature;BME280_humidity;BME280_pressure;Samples;Min_cycle;Max_cycle;Signal;HPM_P1;HPM_P2
2024/04/22 00:01:27;;;;;;;;;;;;;;;7.52;67.93;94282.53;4443847;26;20302;-60
2024/04/22 00:03:29;;;;;;;;;;;;;;;7.59;67.38;94284.41;4440982;26;19941;-60
2024/04/22 00:05:32;;;;;;;;;;;;;;;7.59;67.62;94289.59;4443155;26;19935;-61
2024/04/22 00:07:33;;;;;;;;;;;;;;;7.50;67.42;94293.09;4432976;26;19941;-61
2024/04/22 00:09:35;;;;;;;;;;;;;;;7.42;67.29;94290.44;4437434;26;19969;-60
2024/04/22 00:11:37;;;;;;;;;;;;;;;7.36;67.36;94291.84;4440870;26;19999;-60
2024/04/22 00:13:39;;;;;;;;;;;;;;;7.44;67.38;94298.91;4425896;26;20483;-59
2024/04/22 00:15:41;;;;;;;;;;;;;;;7.47;67.89;94290.81;4430349;26;20254;-61
2024/04/22 00:17:43;;;;;;;;;;;;;;;7.49;67.78;94306.28;4426047;26;20181;-61
2024/04/22 00:19:45;;;;;;;;;;;;;;;7.52;68.15;94301.59;4444778;26;20339;-60
2024/04/22 00:21:46;;;;;;;;;;;;;;;7.42;68.58;94306.09;4440677;26;19930;-59
2024/04/22 00:23:48;;;;;;;;;;;;;;;7.36;68.37;94312.69;4442317;26;19937;-61
2024/04/22 00:25:50;;;;;;;;;;;;;;;7.20;67.66;94303.91;4432686;26;19938;-60
2024/04/22 00:27:53;;;;;;;;;;;;;;;7.13;68.52;94317.50;4422359;26;19929;-57
2024/04/22 00:29:55;;;;;;;;;;;;;;;7.14;68.15;94320.94;4420649;26;19954;-60
2024/04/22 00:31:57;;;;;;;;;;;;;;;6.92;69.36;94322.97;4439487;26;19933;-61
2024/04/22 00:33:58;;;;;;;;;;;;;;;6.73;70.59;94336.09;4442327;26;20597;-59
2024/04/22 00:36:00;;;;;;;;;;;;;;;6.81;68.94;94330.19;4455460;26;20295;-59
2024/04/22 00:38:02;;;;;;;;;;;;;;;6.90;68.80;94332.72;4415100;26;19984;-60
2024/04/22 00:40:04;;;;;;;;;;;;;;;6.96;69.43;94337.34;4451749;26;20401;-62
2024/04/22 00:42:06;;;;;;;;;;;;;;;6.94;68.30;94341.88;4436942;26;19971;-61
2024/04/22 00:44:08;;;;;;;;;;;;;;;7.09;67.52;94336.19;4430271;26;19962;-62
2024/04/22 00:46:10;;;;;;;;;;;;;;;7.08;68.31;94332.78;4444255;26;20003;-59
2024/04/22 00:48:12;;;;;;;;;;;;;;;7.04;68.16;94346.25;4443811;26;19941;-60
2024/04/22 00:50:14;;;;;;;;;;;;;;;7.04;67.98;94338.44;4441018;26;20276;-61
2024/04/22 00:52:16;;;;;;;;;;;;;;;7.07;68.31;94351.97;4431788;26;20002;-61
2024/04/22 00:54:17;;;;;;;;;;;;;;;7.04;67.43;94343.63;4451264;26;20101;-60
2024/04/22 00:56:19;;;;;;;;;;;;;;;7.04;67.56;94348.84;4437671;26;19945;-60
2024/04/22 00:58:25;;;;;;;;;;;;;;;7.04;67.09;94348.84;4440397;26;19941;-60
2024/04/22 01:00:26;;;;;;;;;;;;;;;7.09;67.00;94344.00;4435196;26;19937;-59
2024/04/22 01:02:28;;;;;;;;;;;;;;;7.11;66.76;94347.28;4439096;26;19973;-60
2024/04/22 01:04:31;;;;;;;;;;;;;;;7.13;66.60;94338.34;4457003;26;20382;-61
2024/04/22 01:06:33;;;;;;;;;;;;;;;7.12;66.87;94357.56;4443594;26;20296;-60
2024/04/22 01:08:35;;;;;;;;;;;;;;;6.85;67.91;94347.16;4442025;26;19952;-61
2024/04/22 01:10:36;;;;;;;;;;;;;;;6.70;68.85;94352.03;4435310;26;19949;-62
2024/04/22 01:12:38;;;;;;;;;;;;;;;6.72;69.03;94355.31;4444965;26;19930;-60
2024/04/22 01:14:40;;;;;;;;;;;;;;;6.83;68.62;94352.50;4443543;26;20378;-59
2024/04/22 01:16:42;;;;;;;;;;;;;;;6.92;68.43;94351.63;4433906;26;19977;-61
2024/04/22 01:18:44;;;;;;;;;;;;;;;7.02;67.53;94346.38;4467567;26;20384;-61
2024/04/22 01:20:45;;;;;;;;;;;;;;;7.03;67.60;94347.19;4442150;26;20033;-59
2024/04/22 01:22:47;;;;;;;;;;;;;;;7.01;67.68;94357.75;4420172;26;20024;-61
2024/04/22 01:24:49;;;;;;;;;;;;;;;6.75;68.69;94350.63;4421466;26;19941;-60
2024/04/22 01:26:51;;;;;;;;;;;;;;;6.82;68.72;94356.09;4468472;26;20465;-60
2024/04/22 01:28:53;;;;;;;;;;;;;;;6.94;68.03;94365.31;4442723;26;19936;-61
2024/04/22 01:30:55;;;;;;;;;;;;;;;7.07;67.71;94364.16;4444447;26;20402;-61
2024/04/22 01:32:57;;;;;;;;;;;;;;;7.11;67.20;94360.31;4441653;26;19941;-61
2024/04/22 01:34:59;;;;;;;;;;;;;;;7.24;67.09;94360.78;4442297;26;20333;-60
2024/04/22 01:37:01;;;;;;;;;;;;;;;7.29;66.87;94355.97;4441426;26;20000;-60
2024/04/22 01:39:03;;;;;;;;;;;;;;;7.21;66.30;94349.84;4442841;26;19945;-61
2024/04/22 01:41:05;;;;;;;;;;;;;;;7.21;66.10;94360.25;4435263;26;19975;-61
2024/04/22 01:43:06;;;;;;;;;;;;;;;7.26;66.41;94371.88;4441901;26;20048;-62
2024/04/22 01:45:08;;;;;;;;;;;;;;;7.28;66.52;94366.50;4435913;26;20463;-60
2024/04/22 01:47:10;;;;;;;;;;;;;;;7.33;66.19;94370.31;4439008;26;19937;-61
2024/04/22 01:49:12;;;;;;;;;;;;;;;7.26;66.39;94374.47;4429164;26;19930;-61
2024/04/22 01:51:14;;;;;;;;;;;;;;;7.37;66.64;94376.06;4432566;26;19937;-62
2024/04/22 01:53:16;;;;;;;;;;;;;;;7.33;65.97;94377.31;4432537;26;19998;-60
2024/04/22 01:55:18;;;;;;;;;;;;;;;7.09;67.32;94377.88;4444694;26;19994;-62
2024/04/22 01:57:20;;;;;;;;;;;;;;;7.05;68.01;94372.13;4402605;26;19934;-61
2024/04/22 01:59:22;;;;;;;;;;;;;;;7.13;68.24;94364.41;4435482;26;19936;-61
2024/04/22 02:01:24;;;;;;;;;;;;;;;7.19;67.13;94368.22;4441854;26;20045;-60
2024/04/22 02:03:28;;;;;;;;;;;;;;;7.26;66.61;94366.66;4425914;26;20480;-61
2024/04/22 02:05:30;;;;;;;;;;;;;;;7.13;66.54;94374.00;4428377;26;19930;-60
2024/04/22 02:07:31;;;;;;;;;;;;;;;7.14;67.01;94370.41;4432222;26;19937;-61
2024/04/22 02:09:33;;;;;;;;;;;;;;;7.19;67.04;94363.00;4442571;26;19937;-60
2024/04/22 02:11:35;;;;;;;;;;;;;;;7.27;66.17;94372.69;4435344;26;19938;-59
2024/04/22 02:13:37;;;;;;;;;;;;;;;7.34;66.18;94376.34;4440706;26;20325;-60
2024/04/22 02:15:40;;;;;;;;;;;;;;;7.17;66.86;94377.97;4432556;26;19936;-61
2024/04/22 02:17:41;;;;;;;;;;;;;;;7.23;66.13;94373.94;4432384;26;19930;-60
2024/04/22 02:19:43;;;;;;;;;;;;;;;7.01;67.75;94370.75;4425893;26;19942;-61
2024/04/22 02:21:45;;;;;;;;;;;;;;;6.82;69.56;94379.53;4429889;26;19952;-60
2024/04/22 02:23:47;;;;;;;;;;;;;;;6.66;71.41;94381.91;4443352;26;19936;-59
2024/04/22 02:25:49;;;;;;;;;;;;;;;6.40;72.50;94372.13;4432337;26;19929;-62
2024/04/22 02:27:51;;;;;;;;;;;;;;;6.22;73.58;94385.06;4444318;26;19937;-59
2024/04/22 02:29:53;;;;;;;;;;;;;;;6.12;74.17;94382.44;4441831;26;19936;-61
2024/04/22 02:31:55;;;;;;;;;;;;;;;6.08;73.71;94380.28;4429834;26;19961;-60
2024/04/22 02:33:57;;;;;;;;;;;;;;;6.20;73.51;94373.97;4434687;26;20246;-61
2024/04/22 02:35:58;;;;;;;;;;;;;;;6.42;72.36;94379.78;4435305;26;20041;-62
2024/04/22 02:38:00;;;;;;;;;;;;;;;6.56;71.68;94374.97;4437471;26;19929;-61
2024/04/22 02:40:03;;;;;;;;;;;;;;;6.67;70.53;94370.53;4440901;26;19992;-61
2024/04/22 02:42:05;;;;;;;;;;;;;;;6.73;70.53;94372.53;4438777;26;20431;-61
2024/04/22 02:44:06;;;;;;;;;;;;;;;6.66;71.09;94381.91;4441105;26;20027;-62
2024/04/22 02:46:08;;;;;;;;;;;;;;;6.59;72.49;94375.63;4436080;26;19930;-60
2024/04/22 02:48:10;;;;;;;;;;;;;;;6.42;73.84;94379.78;4454348;26;20280;-61
2024/04/22 02:50:13;;;;;;;;;;;;;;;5.93;75.43;94379.84;4441163;26;19962;-61
2024/04/22 02:52:14;;;;;;;;;;;;;;;5.99;76.12;94384.53;4442658;26;19941;-58
2024/04/22 02:54:24;;;;;;;;;;;;;;;5.97;76.59;94386.44;4439112;26;20471;-60
2024/04/22 02:56:25;;;;;;;;;;;;;;;5.74;77.29;94391.91;4427036;26;20003;-61
2024/04/22 02:58:27;;;;;;;;;;;;;;;5.59;78.05;94403.66;4422713;26;20466;-60
2024/04/22 03:00:30;;;;;;;;;;;;;;;5.59;78.06;94388.06;4448072;26;20452;-60
2024/04/22 03:02:32;;;;;;;;;;;;;;;5.62;78.47;94393.00;4435070;26;19936;-61
2024/04/22 03:04:33;;;;;;;;;;;;;;;5.49;78.39;94398.47;4425747;26;19934;-61
2024/04/22 03:06:35;;;;;;;;;;;;;;;5.56;78.53;94398.75;4442100;26;20543;-60
2024/04/22 03:08:37;;;;;;;;;;;;;;;5.63;78.31;94394.63;4445817;26;19948;-60
2024/04/22 03:10:40;;;;;;;;;;;;;;;5.71;78.17;94397.38;4442338;26;19938;-61
2024/04/22 03:12:41;;;;;;;;;;;;;;;5.62;78.30;94398.19;4431699;26;20423;-60
2024/04/22 03:14:43;;;;;;;;;;;;;;;5.60;78.28;94396.69;4436045;26;19941;-61
2024/04/22 03:16:45;;;;;;;;;;;;;;;5.60;78.22;94401.91;4442647;26;19964;-62
2024/04/22 03:18:47;;;;;;;;;;;;;;;5.55;78.17;94407.50;4442577;26;19999;-62
2024/04/22 03:20:49;;;;;;;;;;;;;;;5.63;78.18;94418.00;4446647;26;20701;-61
2024/04/22 03:22:51;;;;;;;;;;;;;;;5.51;78.24;94409.53;4444937;26;20540;-62
2024/04/22 03:24:53;;;;;;;;;;;;;;;5.41;78.39;94432.09;4446824;26;20357;-61
2024/04/22 03:26:55;;;;;;;;;;;;;;;5.54;78.36;94421.44;4445266;26;20597;-61
2024/04/22 03:28:57;;;;;;;;;;;;;;;5.62;78.07;94428.56;4440914;26;20131;-60
2024/04/22 03:30:59;;;;;;;;;;;;;;;5.71;77.29;94422.56;4453432;26;19935;-62
2024/04/22 03:33:03;;;;;;;;;;;;;;;5.71;77.18;94425.16;4441897;26;19961;-59
2024/04/22 03:35:06;;;;;;;;;;;;;;;5.61;77.01;94432.91;4441786;26;20241;-61
2024/04/22 03:37:08;;;;;;;;;;;;;;;5.54;77.40;94437.03;4433264;26;19929;-62
2024/04/22 03:39:10;;;;;;;;;;;;;;;5.45;77.74;94443.03;4427719;26;20539;-61
2024/04/22 03:41:11;;;;;;;;;;;;;;;5.48;77.87;94435.78;4443034;26;20081;-61
2024/04/22 03:43:13;;;;;;;;;;;;;;;5.54;78.13;94448.22;4439491;26;19956;-58
2024/04/22 03:45:15;;;;;;;;;;;;;;;5.40;78.15;94438.25;4441101;26;19944;-59
2024/04/22 03:49:56;;;;;;;;;;;;;;;5.42;78.32;94445.88;4428441;26;19958;-59
2024/04/22 03:51:58;;;;;;;;;;;;;;;5.62;78.34;94444.97;4438071;26;19929;-60
2024/04/22 03:54:00;;;;;;;;;;;;;;;5.52;77.96;94444.13;4437034;26;20084;-60
2024/04/22 03:56:01;;;;;;;;;;;;;;;5.46;77.89;94449.88;4437741;26;19941;-57
2024/04/22 03:58:03;;;;;;;;;;;;;;;5.53;77.69;94453.59;4442119;26;19929;-59
2024/04/22 04:00:05;;;;;;;;;;;;;;;5.32;78.34;94451.88;4445693;26;20291;-62
2024/04/22 04:02:07;;;;;;;;;;;;;;;5.46;78.25;94449.88;4436124;26;19936;-61
2024/04/22 04:04:09;;;;;;;;;;;;;;;5.50;78.19;94462.44;4441365;26;19957;-61
2024/04/22 04:06:11;;;;;;;;;;;;;;;5.52;77.99;94457.94;4439906;26;20038;-59
2024/04/22 04:08:13;;;;;;;;;;;;;;;5.58;77.92;94459.19;4443699;26;20367;-59
2024/04/22 04:10:15;;;;;;;;;;;;;;;5.52;77.88;94462.31;4440146;26;19929;-59
2024/04/22 04:12:17;;;;;;;;;;;;;;;5.53;77.97;94466.56;4443114;26;20035;-61
2024/04/22 04:14:18;;;;;;;;;;;;;;;5.45;78.20;94469.03;4432812;26;19936;-60
2024/04/22 04:16:21;;;;;;;;;;;;;;;5.53;78.10;94467.41;4443437;26;19930;-61
2024/04/22 04:18:23;;;;;;;;;;;;;;;5.64;78.13;94468.25;4426715;26;20388;-62
2024/04/22 04:20:24;;;;;;;;;;;;;;;5.72;77.92;94468.38;4442536;26;20757;-62
2024/04/22 04:22:26;;;;;;;;;;;;;;;5.75;77.59;94465.50;4442759;26;19954;-60
2024/04/22 04:24:28;;;;;;;;;;;;;;;5.99;77.67;94472.94;4438325;26;19930;-62
2024/04/22 04:26:30;;;;;;;;;;;;;;;5.92;77.14;94471.81;4442485;26;20057;-59
2024/04/22 04:28:32;;;;;;;;;;;;;;;5.85;77.66;94483.69;4425925;26;20007;-61
2024/04/22 04:30:33;;;;;;;;;;;;;;;5.63;77.88;94487.38;4443299;26;19929;-61
2024/04/22 04:32:35;;;;;;;;;;;;;;;5.61;78.26;94495.28;4434464;26;19930;-61
2024/04/22 04:34:38;;;;;;;;;;;;;;;5.56;78.16;94486.28;4467908;26;20037;-61
2024/04/22 04:36:39;;;;;;;;;;;;;;;5.68;78.33;94491.22;4445627;26;19937;-60
2024/04/22 04:38:41;;;;;;;;;;;;;;;5.76;78.11;94487.94;4444984;26;19957;-60
2024/04/22 04:40:43;;;;;;;;;;;;;;;5.82;76.55;94496.97;4444634;26;20357;-63
2024/04/22 04:42:45;;;;;;;;;;;;;;;5.74;76.47;94495.88;4435315;26;19988;-62
2024/04/22 04:44:47;;;;;;;;;;;;;;;5.82;76.66;94499.56;4439858;26;19929;-61
2024/04/22 04:46:49;;;;;;;;;;;;;;;5.88;76.55;94506.84;4436438;26;20012;-62
2024/04/22 04:48:51;;;;;;;;;;;;;;;6.05;76.41;94505.38;4443660;26;19933;-62
2024/04/22 04:50:54;;;;;;;;;;;;;;;6.08;75.83;94499.91;4429821;26;19929;-60
2024/04/22 04:52:56;;;;;;;;;;;;;;;6.17;75.60;94506.06;4443031;26;20015;-61
2024/04/22 04:54:58;;;;;;;;;;;;;;;6.10;75.38;94505.78;4442387;26;19930;-58
2024/04/22 04:56:59;;;;;;;;;;;;;;;6.17;74.97;94511.25;4438750;26;19934;-61
2024/04/22 04:59:01;;;;;;;;;;;;;;;6.20;75.09;94513.59;4440776;26;20379;-63
2024/04/22 05:01:04;;;;;;;;;;;;;;;6.26;74.65;94515.63;4430513;26;19941;-60
2024/04/22 05:03:06;;;;;;;;;;;;;;;6.19;74.79;94524.97;4441124;26;19975;-59
2024/04/22 05:05:08;;;;;;;;;;;;;;;6.06;74.88;94517.41;4429667;26;19953;-61
2024/04/22 05:07:09;;;;;;;;;;;;;;;6.10;74.96;94519.59;4433269;26;20191;-61
2024/04/22 05:09:15;;;;;;;;;;;;;;;6.09;75.46;94528.38;4444455;26;20064;-63
2024/04/22 05:11:19;;;;;;;;;;;;;;;6.13;75.34;94519.34;4440406;26;20433;-61
2024/04/22 05:13:21;;;;;;;;;;;;;;;6.11;75.49;94523.88;4444086;26;20210;-61
2024/04/22 05:15:23;;;;;;;;;;;;;;;6.18;75.03;94525.94;4443485;26;19930;-61
2024/04/22 05:17:25;;;;;;;;;;;;;;;6.25;74.38;94520.03;4443228;26;20070;-62
2024/04/22 05:19:27;;;;;;;;;;;;;;;6.34;74.26;94513.19;4442903;26;20035;-61
2024/04/22 05:21:29;;;;;;;;;;;;;;;6.47;73.62;94512.88;4435296;26;20302;-62
2024/04/22 05:23:30;;;;;;;;;;;;;;;6.65;73.76;94518.22;4436864;26;19942;-63
2024/04/22 05:25:32;;;;;;;;;;;;;;;6.76;72.25;94516.28;4423203;26;20004;-60
2024/04/22 05:27:35;;;;;;;;;;;;;;;6.94;72.47;94515.56;4443847;26;19947;-59
2024/04/22 05:29:36;;;;;;;;;;;;;;;7.21;71.39;94520.00;4441063;26;19929;-61
2024/04/22 05:31:38;;;;;;;;;;;;;;;7.39;71.01;94523.47;4446227;26;20000;-62
2024/04/22 05:36:11;;;;;;;;;;;;;;;7.34;69.13;94530.91;4443354;26;20270;-60
2024/04/22 05:38:14;;;;;;;;;;;;;;;7.17;69.95;94532.47;4438591;26;19929;-60
2024/04/22 05:40:16;;;;;;;;;;;;;;;7.35;70.32;94531.72;4438948;26;19941;-61
2024/04/22 05:42:18;;;;;;;;;;;;;;;7.21;70.69;94532.22;4439706;26;19953;-61
2024/04/22 05:44:20;;;;;;;;;;;;;;;7.26;70.36;94530.81;4433638;26;19941;-62
2024/04/22 05:46:22;;;;;;;;;;;;;;;7.27;70.36;94531.63;4442640;26;19994;-60
2024/04/22 05:48:24;;;;;;;;;;;;;;;7.32;70.55;94540.66;4441404;26;19970;-61
2024/04/22 05:50:25;;;;;;;;;;;;;;;7.39;70.46;94538.31;4447113;26;19929;-61
2024/04/22 05:52:27;;;;;;;;;;;;;;;7.32;70.73;94535.44;4435892;26;20418;-61
2024/04/22 05:54:29;;;;;;;;;;;;;;;7.48;69.88;94536.63;4448501;26;19937;-63
2024/04/22 05:56:31;;;;;;;;;;;;;;;7.19;69.83;94540.16;4443667;26;20002;-60
2024/04/22 05:58:33;;;;;;;;;;;;;;;7.00;70.19;94541.03;4428678;26;20014;-62
2024/04/22 06:00:35;;;;;;;;;;;;;;;7.04;69.71;94537.19;4434441;26;20033;-62
2024/04/22 06:02:37;;;;;;;;;;;;;;;7.26;69.65;94530.00;4456406;26;20419;-63
2024/04/22 06:04:40;;;;;;;;;;;;;;;7.55;68.88;94528.09;4440042;26;20392;-61
2024/04/22 06:06:42;;;;;;;;;;;;;;;7.60;68.32;94530.25;4449515;26;20440;-61
2024/04/22 06:08:44;;;;;;;;;;;;;;;7.43;69.15;94539.66;4432323;26;20322;-64
2024/04/22 06:10:45;;;;;;;;;;;;;;;7.47;68.75;94553.22;4438276;26;20026;-61
2024/04/22 06:12:47;;;;;;;;;;;;;;;7.45;68.76;94548.16;4427829;26;19930;-62
2024/04/22 06:14:51;;;;;;;;;;;;;;;7.53;69.24;94550.06;4440598;26;20423;-61
2024/04/22 06:16:53;;;;;;;;;;;;;;;7.78;68.92;94553.75;4438830;26;20002;-62
2024/04/22 06:18:55;;;;;;;;;;;;;;;7.83;67.93;94551.56;4428237;26;19990;-61
2024/04/22 06:20:56;;;;;;;;;;;;;;;7.75;67.77;94559.28;4441647;26;19957;-61
2024/04/22 06:22:58;;;;;;;;;;;;;;;7.85;67.10;94556.59;4438948;26;20608;-59
2024/04/22 06:25:00;;;;;;;;;;;;;;;7.70;67.36;94571.91;4439765;26;19975;-62
2024/04/22 06:27:05;;;;;;;;;;;;;;;7.65;67.96;94571.53;4445288;26;19954;-61
2024/04/22 06:29:07;;;;;;;;;;;;;;;7.91;67.85;94569.88;4444328;26;20326;-62
2024/04/22 06:31:09;;;;;;;;;;;;;;;7.88;67.76;94585.84;4437685;26;19937;-62
2024/04/22 06:33:12;;;;;;;;;;;;;;;7.86;67.97;94579.13;4429703;26;20344;-62
2024/04/22 06:35:14;;;;;;;;;;;;;;;7.96;66.23;94575.50;4438499;26;19933;-63
2024/04/22 06:37:15;;;;;;;;;;;;;;;8.02;66.39;94571.47;4431145;26;20007;-64
2024/04/22 06:39:17;;;;;;;;;;;;;;;7.84;67.60;94581.88;4438766;26;19930;-61
2024/04/22 06:41:19;;;;;;;;;;;;;;;7.95;66.88;94594.69;4446650;26;19949;-61
2024/04/22 06:43:21;;;;;;;;;;;;;;;7.79;66.51;94590.13;4434170;26;19930;-61
2024/04/22 06:45:23;;;;;;;;;;;;;;;7.75;66.54;94588.78;4443243;26;19937;-60
2024/04/22 06:47:24;;;;;;;;;;;;;;;7.65;65.96;94606.25;4442908;26;20207;-61
2024/04/22 06:49:26;;;;;;;;;;;;;;;7.73;66.47;94606.34;4442171;26;20019;-62
2024/04/22 06:51:30;;;;;;;;;;;;;;;7.84;65.07;94607.13;4444963;26;19957;-61
2024/04/22 06:53:32;;;;;;;;;;;;;;;7.69;66.33;94610.22;4445089;26;19981;-62
2024/04/22 06:55:34;;;;;;;;;;;;;;;7.52;66.11;94618.78;4455753;26;19998;-60
2024/04/22 06:57:36;;;;;;;;;;;;;;;7.45;67.49;94612.50;4429035;26;19930;-63
2024/04/22 06:59:38;;;;;;;;;;;;;;;7.76;67.00;94607.84;4444110;26;19942;-61
2024/04/22 07:01:40;;;;;;;;;;;;;;;7.65;65.56;94618.47;4433988;26;19941;-62
2024/04/22 07:03:42;;;;;;;;;;;;;;;7.56;64.15;94618.34;4434628;26;19929;-62
2024/04/22 07:05:44;;;;;;;;;;;;;;;7.39;65.13;94619.91;4435074;26;19929;-63
2024/04/22 07:07:46;;;;;;;;;;;;;;;7.73;65.07;94622.00;4445822;26;20006;-63
2024/04/22 07:09:47;;;;;;;;;;;;;;;7.79;64.91;94621.41;4445252;26;19929;-65
2024/04/22 07:11:49;;;;;;;;;;;;;;;8.06;64.83;94613.75;4428858;26;19930;-65
2024/04/22 07:13:51;;;;;;;;;;;;;;;7.99;63.34;94623.94;4444997;26;19941;-63
2024/04/22 07:15:53;;;;;;;;;;;;;;;7.94;64.04;94624.38;4442438;26;20347;-63
2024/04/22 07:17:54;;;;;;;;;;;;;;;7.93;64.36;94653.22;4426327;26;19966;-60
2024/04/22 07:19:56;;;;;;;;;;;;;;;7.92;65.02;94641.97;4452187;26;20027;-63
2024/04/22 07:22:00;;;;;;;;;;;;;;;8.17;64.00;94632.66;4438372;26;20068;-61
2024/04/22 07:24:03;;;;;;;;;;;;;;;8.45;63.23;94631.81;4436483;26;20013;-64
2024/04/22 07:26:05;;;;;;;;;;;;;;;8.63;62.24;94634.44;4436904;26;20434;-61
2024/04/22 07:28:07;;;;;;;;;;;;;;;8.81;61.79;94637.88;4439603;26;19933;-61
2024/04/22 07:30:10;;;;;;;;;;;;;;;8.89;60.93;94635.34;4446102;26;20031;-61
2024/04/22 07:32:13;;;;;;;;;;;;;;;9.28;60.37;94636.78;4443863;26;19961;-61
2024/04/22 07:34:15;;;;;;;;;;;;;;;9.60;59.54;94637.00;4433475;26;19947;-63
2024/04/22 07:36:33;;;;;;;;;;;;;;;9.71;57.87;94633.28;4442423;26;19935;-60
2024/04/22 07:38:34;;;;;;;;;;;;;;;9.90;57.24;94634.88;4435049;26;19930;-61
2024/04/22 07:40:36;;;;;;;;;;;;;;;10.13;56.77;94637.75;4432116;26;20056;-61
2024/04/22 07:42:38;;;;;;;;;;;;;;;10.44;55.54;94632.00;4435055;26;19944;-60
2024/04/22 07:44:40;;;;;;;;;;;;;;;10.51;54.77;94643.47;4440116;26;19953;-63
2024/04/22 07:46:44;;;;;;;;;;;;;;;10.70;53.94;94631.06;4445010;26;19999;-61
2024/04/22 07:48:46;;;;;;;;;;;;;;;10.88;53.74;94642.22;4443413;26;19933;-61
2024/04/22 07:50:48;;;;;;;;;;;;;;;10.99;52.41;94641.91;4441464;26;19942;-61
2024/04/22 07:52:51;;;;;;;;;;;;;;;10.89;52.97;94640.44;4454510;26;19998;-63
2024/04/22 07:54:53;;;;;;;;;;;;;;;10.98;52.97;94636.81;4433989;26;19930;-61
2024/04/22 07:56:55;;;;;;;;;;;;;;;11.10;53.50;94629.44;4421130;26;20044;-63
2024/04/22 07:58:57;;;;;;;;;;;;;;;11.26;52.34;94640.75;4431271;26;19938;-62
2024/04/22 08:01:01;;;;;;;;;;;;;;;11.31;51.84;94636.81;4429905;26;20250;-63
2024/04/22 08:03:03;;;;;;;;;;;;;;;11.26;52.15;94650.44;4439059;26;19929;-62
2024/04/22 08:05:06;;;;;;;;;;;;;;;11.42;51.81;94639.94;4425564;26;19930;-63
2024/04/22 08:07:07;;;;;;;;;;;;;;;11.61;51.19;94641.38;4445992;26;20087;-60
2024/04/22 08:09:09;;;;;;;;;;;;;;;11.61;49.46;94645.81;4443676;26;19941;-61
2024/04/22 08:11:11;;;;;;;;;;;;;;;11.58;49.61;94646.97;4442206;26;19995;-61
2024/04/22 08:13:13;;;;;;;;;;;;;;;11.79;50.29;94651.69;4432923;26;19929;-61
2024/04/22 08:15:16;;;;;;;;;;;;;;;11.90;50.20;94645.28;4443372;26;19937;-61
2024/04/22 08:17:18;;;;;;;;;;;;;;;11.65;48.77;94650.53;4418520;26;19936;-62
2024/04/22 08:19:19;;;;;;;;;;;;;;;11.59;47.67;94653.03;4420013;26;20250;-61
2024/04/22 08:21:21;;;;;;;;;;;;;;;11.69;48.14;94643.16;4434976;26;20073;-60
2024/04/22 08:23:24;;;;;;;;;;;;;;;11.93;46.81;94652.81;4444006;26;20003;-62
2024/04/22 08:25:25;;;;;;;;;;;;;;;12.15;46.03;94653.88;4439575;26;19938;-61
2024/04/22 08:27:28;;;;;;;;;;;;;;;12.35;46.51;94648.25;4428962;26;19929;-60
2024/04/22 08:29:29;;;;;;;;;;;;;;;12.56;46.32;94645.84;4445500;26;19933;-62
2024/04/22 08:31:32;;;;;;;;;;;;;;;12.28;46.37;94650.72;4431361;26;19938;-62
2024/04/22 08:33:34;;;;;;;;;;;;;;;12.55;46.52;94646.84;4437350;26;19930;-61
2024/04/22 08:35:46;;;;;;;;;;;;;;;12.35;47.47;94656.13;4441578;26;20253;-62
2024/04/22 08:37:48;;;;;;;;;;;;;;;11.14;45.79;94643.88;4444791;26;20374;-61
2024/04/22 08:39:50;;;;;;;;;;;;;;;11.43;46.92;94646.00;4438625;26;20214;-60
2024/04/22 08:41:51;;;;;;;;;;;;;;;11.57;45.66;94649.75;4445639;26;20419;-60
2024/04/22 08:43:53;;;;;;;;;;;;;;;11.79;45.28;94643.00;4444043;26;19929;-62
2024/04/22 08:45:55;;;;;;;;;;;;;;;11.99;44.63;94648.72;4441204;26;20110;-61
2024/04/22 08:47:58;;;;;;;;;;;;;;;12.35;44.10;94649.06;4435296;26;19937;-61
2024/04/22 08:50:00;;;;;;;;;;;;;;;12.32;44.41;94644.13;4437389;26;19929;-62
2024/04/22 08:52:02;;;;;;;;;;;;;;;11.59;48.31;94643.34;4440104;26;19936;-60
2024/04/22 08:54:04;;;;;;;;;;;;;;;11.35;49.83;94643.38;4438338;26;20241;-61
2024/04/22 08:56:24;;;;;;;;;;;;;;;10.92;50.10;94651.38;4443678;26;19937;-62
2024/04/22 08:58:26;;;;;;;;;;;;;;;11.13;49.31;94648.28;4436822;26;19958;-63
2024/04/22 09:00:28;;;;;;;;;;;;;;;11.08;48.37;94653.22;4442748;26;20033;-61
2024/04/22 09:02:30;;;;;;;;;;;;;;;10.93;49.38;94653.03;4443235;26;19962;-64
2024/04/22 09:04:31;;;;;;;;;;;;;;;11.17;49.14;94644.38;4443522;26;19930;-62
2024/04/22 09:06:34;;;;;;;;;;;;;;;11.51;48.24;94637.28;4439433;26;19930;-62
2024/04/22 09:08:45;;;;;;;;;;;;;;;11.35;47.76;94638.13;4441161;26;19933;-63
2024/04/22 09:11:00;;;;;;;;;;;;;;;11.40;48.70;94641.91;4442119;26;19989;-61
2024/04/22 09:13:05;;;;;;;;;;;;;;;11.32;49.11;94639.28;4431485;26;19938;-61
2024/04/22 09:15:07;;;;;;;;;;;;;;;11.62;49.26;94642.22;4442805;26;20237;-63
2024/04/22 09:17:19;;;;;;;;;;;;;;;11.90;49.71;94640.03;4439852;26;20264;-63
2024/04/22 09:19:21;;;;;;;;;;;;;;;12.20;47.73;94635.03;4442584;26;19929;-60
2024/04/22 09:21:25;;;;;;;;;;;;;;;12.30;46.66;94630.34;4444541;26;19930;-60
2024/04/22 09:23:27;;;;;;;;;;;;;;;12.76;46.34;94629.66;4442837;26;19942;-61
2024/04/22 09:25:29;;;;;;;;;;;;;;;12.68;45.66;94633.13;4448309;26;19930;-62
2024/04/22 09:27:32;;;;;;;;;;;;;;;12.52;46.16;94639.31;4443137;26;19929;-60
2024/04/22 09:29:38;;;;;;;;;;;;;;;12.36;47.29;94636.75;4443454;26;19953;-62
2024/04/22 09:31:40;;;;;;;;;;;;;;;12.22;47.64;94643.56;4439711;26;19936;-63
2024/04/22 09:33:42;;;;;;;;;;;;;;;11.89;48.36;94633.13;4435566;26;19930;-62
2024/04/22 09:35:44;;;;;;;;;;;;;;;11.77;48.84;94637.91;4429743;26;19930;-61
2024/04/22 09:37:48;;;;;;;;;;;;;;;11.94;48.37;94636.09;4445312;26;19930;-63
2024/04/22 09:39:50;;;;;;;;;;;;;;;11.33;48.29;94654.03;4419682;26;20505;-62
2024/04/22 09:41:52;;;;;;;;;;;;;;;11.46;49.90;94633.38;4429909;26;20185;-61
2024/04/22 09:43:54;;;;;;;;;;;;;;;12.03;48.99;94640.31;4431381;26;19950;-61
2024/04/22 09:46:03;;;;;;;;;;;;;;;12.54;47.11;94629.44;4433427;26;20009;-61
2024/04/22 09:48:06;;;;;;;;;;;;;;;12.38;46.02;94642.66;4429611;26;20487;-60
2024/04/22 09:50:08;;;;;;;;;;;;;;;12.08;47.51;94647.69;4418909;26;20365;-60
2024/04/22 09:52:10;;;;;;;;;;;;;;;11.48;48.29;94643.69;4443872;26;19957;-62
2024/04/22 09:54:12;;;;;;;;;;;;;;;11.43;48.54;94633.69;4443994;26;19929;-60
2024/04/22 09:56:23;;;;;;;;;;;;;;;11.56;48.19;94641.06;4443595;26;19933;-60
2024/04/22 09:58:25;;;;;;;;;;;;;;;11.89;49.30;94633.13;4438693;26;20110;-61
2024/04/22 10:00:27;;;;;;;;;;;;;;;11.72;49.33;94634.13;4436257;26;20292;-61
2024/04/22 10:02:29;;;;;;;;;;;;;;;12.15;48.50;94626.81;4435134;26;20011;-63
2024/04/22 10:04:31;;;;;;;;;;;;;;;12.36;47.73;94621.78;4424979;26;19930;-62
2024/04/22 10:06:33;;;;;;;;;;;;;;;12.43;47.71;94612.25;4410904;26;19962;-61
2024/04/22 10:08:35;;;;;;;;;;;;;;;12.74;46.87;94618.50;4422694;26;20680;-61
2024/04/22 10:10:40;;;;;;;;;;;;;;;12.98;46.58;94614.88;4430843;26;19930;-61
2024/04/22 10:12:42;;;;;;;;;;;;;;;13.12;45.73;94614.09;4454445;26;20275;-63
2024/04/22 10:14:47;;;;;;;;;;;;;;;12.79;45.12;94618.78;4442430;26;20555;-62
2024/04/22 10:16:55;;;;;;;;;;;;;;;12.75;46.95;94609.59;4441826;26;19929;-62
2024/04/22 10:18:58;;;;;;;;;;;;;;;12.59;46.52;94613.97;4442299;26;20248;-61
2024/04/22 10:21:00;;;;;;;;;;;;;;;12.54;46.87;94613.69;4445037;26;19980;-62
2024/04/22 10:23:04;;;;;;;;;;;;;;;12.72;46.68;94623.09;4444464;26;20591;-62
2024/04/22 10:25:08;;;;;;;;;;;;;;;12.49;47.15;94616.78;4432934;26;20223;-62
2024/04/22 10:27:10;;;;;;;;;;;;;;;12.64;47.80;94609.00;4444404;26;19936;-61
2024/04/22 10:29:14;;;;;;;;;;;;;;;12.83;46.42;94614.81;4443805;26;19989;-61
2024/04/22 10:31:22;;;;;;;;;;;;;;;12.66;47.37;94617.53;4440521;26;19930;-61
2024/04/22 10:33:24;;;;;;;;;;;;;;;12.57;47.54;94626.47;4441795;26;20336;-61
2024/04/22 10:35:27;;;;;;;;;;;;;;;12.54;47.72;94611.06;4443707;26;19987;-60
2024/04/22 10:37:29;;;;;;;;;;;;;;;12.34;47.46;94613.28;4433948;26;20236;-60
2024/04/22 10:39:31;;;;;;;;;;;;;;;12.73;47.57;94603.69;4440967;26;19929;-61
2024/04/22 10:41:33;;;;;;;;;;;;;;;13.26;46.02;94601.97;4437518;26;19964;-61
2024/04/22 10:43:35;;;;;;;;;;;;;;;13.25;45.73;94608.22;4430637;26;19954;-61
2024/04/22 10:45:37;;;;;;;;;;;;;;;13.06;45.89;94601.66;4440860;26;20360;-61
2024/04/22 10:47:39;;;;;;;;;;;;;;;12.86;46.66;94607.41;4431589;26;20324;-61